Time;durP1;ratioP1;P1;durP2;ratioP2;P2;SDS_P1;SDS_P2;PMS_P1;PMS_P2;Temp;Humidity;BMP_temperature;BMP_pressure;BME280_temperature;BME280_humidity;BME280_pressure;Samples;Min_cycle;Max_cycle;Signal;HPM_P1;HPM_P2
2023/10/21 00:02:21;;;;;;;1.05;0.60;;;18.50;78.50;;;;;;5025808;28;20198;-71
2023/10/21 00:04:47;;;;;;;0.50;0.50;;;18.50;78.50;;;;;;5027620;28;20297;-71
2023/10/21 00:07:13;;;;;;;0.68;0.68;;;18.50;78.50;;;;;;5048433;28;20210;-71
2023/10/21 00:09:38;;;;;;;0.50;0.50;;;18.50;78.50;;;;;;5040104;28;20183;-71
2023/10/21 00:12:06;;;;;;;1.00;0.60;;;18.50;78.50;;;;;;5022688;28;20210;-71
2023/10/21 00:14:33;;;;;;;1.13;0.60;;;18.50;78.50;;;;;;5022404;28;20244;-71
2023/10/21 00:16:59;;;;;;;1.10;0.73;;;18.50;78.50;;;;;;5017320;28;20241;-70
2023/10/21 00:19:25;;;;;;;0.60;0.60;;;18.50;78.40;;;;;;5005729;28;20183;-71
2023/10/21 00:21:53;;;;;;;1.58;0.63;;;18.50;78.50;;;;;;5017284;28;20226;-71
2023/10/21 00:24:19;;;;;;;0.70;0.60;;;18.50;78.50;;;;;;5046840;28;20282;-71
2023/10/21 00:26:47;;;;;;;2.45;0.80;;;18.50;78.40;;;;;;5040312;28;20223;-70
2023/10/21 00:29:17;;;;;;;0.68;0.50;;;18.50;78.40;;;;;;5013503;28;20194;-71
2023/10/21 00:31:44;;;;;;;0.65;0.65;;;18.50;78.40;;;;;;5011837;28;20187;-70
2023/10/21 00:34:10;;;;;;;0.85;0.80;;;18.50;78.40;;;;;;5005362;28;20203;-72
2023/10/21 00:36:37;;;;;;;0.60;0.60;;;18.50;78.40;;;;;;5021627;28;20191;-71
2023/10/21 00:39:03;;;;;;;1.27;0.50;;;18.50;79.20;;;;;;5021289;28;20186;-71
2023/10/21 00:41:29;;;;;;;0.70;0.70;;;18.50;78.50;;;;;;5025501;28;20187;-71
2023/10/21 00:43:55;;;;;;;0.43;0.43;;;18.50;78.50;;;;;;5013498;28;20208;-71
2023/10/21 00:46:26;;;;;;;0.65;0.60;;;18.50;78.50;;;;;;5000958;28;20194;-71
2023/10/21 00:48:52;;;;;;;0.98;0.80;;;18.50;78.40;;;;;;5004831;28;20265;-71
2023/10/21 00:51:20;;;;;;;0.60;0.60;;;18.50;78.40;;;;;;5004311;28;20187;-71
2023/10/21 00:53:46;;;;;;;0.50;0.50;;;18.50;78.50;;;;;;5018567;28;20199;-71
2023/10/21 00:56:12;;;;;;;0.52;0.52;;;18.50;78.40;;;;;;5021168;28;20219;-71
2023/10/21 00:58:38;;;;;;;0.68;0.52;;;18.50;78.40;;;;;;5020587;28;20282;-71
2023/10/21 01:01:08;;;;;;;1.33;0.70;;;18.50;78.40;;;;;;4997496;28;20188;-70
2023/10/21 01:03:35;;;;;;;0.60;0.60;;;18.50;78.40;;;;;;5024547;28;20218;-70
2023/10/21 01:06:02;;;;;;;1.20;0.50;;;18.50;78.40;;;;;;5017352;28;20199;-71
2023/10/21 01:08:28;;;;;;;0.70;0.70;;;18.50;78.40;;;;;;5016544;28;20242;-71
2023/10/21 01:10:55;;;;;;;0.60;0.50;;;18.50;78.40;;;;;;5049673;28;20231;-71
2023/10/21 01:13:21;;;;;;;0.90;0.60;;;18.50;78.40;;;;;;5024390;28;20223;-71
2023/10/21 01:15:47;;;;;;;1.85;0.60;;;18.50;78.40;;;;;;5016922;28;20278;-71
2023/10/21 01:18:13;;;;;;;0.70;0.70;;;18.50;78.40;;;;;;4999125;28;20190;-71
2023/10/21 01:20:42;;;;;;;0.70;0.70;;;18.50;78.40;;;;;;5033928;28;20183;-71
2023/10/21 01:23:13;;;;;;;0.95;0.60;;;18.50;78.40;;;;;;5003732;28;20186;-71
2023/10/21 01:25:38;;;;;;;0.60;0.60;;;18.50;78.40;;;;;;5019671;28;20199;-71
2023/10/21 01:28:04;;;;;;;0.47;0.47;;;18.50;78.40;;;;;;5007717;28;20214;-71
2023/10/21 01:30:30;;;;;;;0.70;0.60;;;18.50;78.50;;;;;;5016538;28;20614;-71
2023/10/21 01:32:56;;;;;;;0.60;0.60;;;18.50;78.40;;;;;;4999839;28;20189;-71
2023/10/21 01:35:22;;;;;;;0.80;0.60;;;18.50;78.40;;;;;;5014688;28;20186;-71
2023/10/21 01:37:48;;;;;;;0.88;0.70;;;18.50;78.40;;;;;;5037007;28;20198;-71
2023/10/21 01:40:15;;;;;;;0.60;0.60;;;18.50;78.40;;;;;;5025854;28;20193;-71
2023/10/21 01:42:41;;;;;;;0.60;0.60;;;18.50;78.40;;;;;;5019621;28;20195;-71
2023/10/21 01:45:09;;;;;;;0.50;0.50;;;18.50;78.40;;;;;;5008222;28;20216;-71
2023/10/21 01:47:35;;;;;;;0.85;0.50;;;18.50;78.40;;;;;;5012748;28;20297;-71
2023/10/21 01:50:07;;;;;;;0.65;0.50;;;18.50;78.40;;;;;;5019328;28;20186;-71
2023/10/21 01:52:37;;;;;;;0.63;0.63;;;18.50;78.40;;;;;;5006516;28;20246;-71
2023/10/21 01:55:08;;;;;;;0.60;0.60;;;18.50;78.40;;;;;;5017026;28;20204;-71
2023/10/21 01:57:35;;;;;;;0.65;0.65;;;18.50;78.40;;;;;;5007668;28;20210;-71
2023/10/21 02:00:08;;;;;;;0.50;0.50;;;18.50;78.40;;;;;;5010436;28;20194;-71
2023/10/21 02:02:38;;;;;;;1.13;0.60;;;18.50;78.40;;;;;;5020590;28;20195;-71
2023/10/21 02:05:06;;;;;;;0.43;0.43;;;18.50;78.40;;;;;;5023464;28;20210;-71
2023/10/21 02:07:36;;;;;;;0.50;0.50;;;18.50;78.40;;;;;;5019992;28;20234;-71
2023/10/21 02:10:04;;;;;;;0.75;0.40;;;18.50;78.40;;;;;;5021249;28;20224;-71
2023/10/21 02:12:31;;;;;;;0.63;0.60;;;18.50;78.40;;;;;;5019843;28;20203;-71
2023/10/21 02:14:57;;;;;;;0.50;0.50;;;18.50;78.40;;;;;;5009485;28;20214;-71
2023/10/21 02:17:22;;;;;;;0.60;0.60;;;18.50;78.40;;;;;;5019109;28;20180;-71
2023/10/21 02:19:56;;;;;;;0.47;0.47;;;18.50;78.40;;;;;;5003367;28;20195;-70
2023/10/21 02:22:26;;;;;;;1.60;0.70;;;18.50;79.20;;;;;;5014484;28;20187;-71
2023/10/21 02:24:55;;;;;;;0.60;0.60;;;18.50;78.40;;;;;;5035877;28;20203;-70
2023/10/21 02:27:21;;;;;;;0.63;0.63;;;18.50;78.40;;;;;;5019049;28;20254;-71
2023/10/21 02:29:48;;;;;;;0.60;0.60;;;18.50;78.40;;;;;;5040774;28;20215;-71
2023/10/21 02:32:14;;;;;;;0.50;0.50;;;18.50;78.40;;;;;;5034576;28;20271;-71
2023/10/21 02:34:41;;;;;;;0.50;0.50;;;18.50;78.40;;;;;;5027891;28;20210;-71
2023/10/21 02:37:08;;;;;;;0.50;0.50;;;18.50;78.40;;;;;;5024642;28;20190;-71
2023/10/21 02:39:35;;;;;;;0.52;0.40;;;18.50;78.40;;;;;;5018785;28;20200;-71
2023/10/21 02:42:00;;;;;;;0.57;0.40;;;18.50;78.40;;;;;;5005948;28;20210;-71
2023/10/21 02:44:27;;;;;;;0.50;0.32;;;18.50;78.40;;;;;;5013498;28;20208;-71
2023/10/21 02:46:53;;;;;;;0.52;0.52;;;18.50;78.40;;;;;;5016533;28;20207;-71
2023/10/21 02:49:18;;;;;;;0.43;0.43;;;18.50;78.40;;;;;;5019423;28;20196;-71
2023/10/21 02:51:44;;;;;;;0.60;0.60;;;18.50;78.40;;;;;;5018879;28;20195;-71
2023/10/21 02:54:10;;;;;;;0.47;0.47;;;18.50;78.40;;;;;;5036490;28;20214;-71
2023/10/21 02:56:36;;;;;;;0.90;0.80;;;18.50;78.40;;;;;;5036787;28;20255;-70
2023/10/21 02:59:02;;;;;;;0.40;0.40;;;18.50;78.40;;;;;;5018796;28;20196;-71
2023/10/21 03:01:28;;;;;;;0.60;0.60;;;18.50;78.40;;;;;;5002696;28;20187;-71
2023/10/21 03:03:55;;;;;;;0.73;0.73;;;18.50;78.40;;;;;;5017995;28;20237;-71
2023/10/21 03:06:21;;;;;;;0.50;0.50;;;18.50;78.40;;;;;;5002403;28;20228;-71
2023/10/21 03:08:48;;;;;;;0.52;0.52;;;18.50;78.40;;;;;;5005185;28;20257;-71
2023/10/21 03:11:17;;;;;;;0.63;0.63;;;18.50;78.40;;;;;;5018693;28;20290;-70
2023/10/21 03:13:43;;;;;;;1.85;0.70;;;18.50;78.40;;;;;;5002185;28;20203;-71
2023/10/21 03:16:14;;;;;;;0.38;0.38;;;18.50;78.40;;;;;;5034030;28;20214;-71
2023/10/21 03:18:41;;;;;;;1.05;0.50;;;18.50;78.40;;;;;;5018640;28;20196;-71
2023/10/21 03:21:08;;;;;;;0.52;0.52;;;18.50;78.40;;;;;;5002475;28;20190;-71
2023/10/21 03:23:34;;;;;;;0.50;0.50;;;18.50;78.40;;;;;;5020958;28;20218;-70
2023/10/21 03:26:04;;;;;;;0.85;0.60;;;18.50;78.40;;;;;;5020472;28;20202;-71
2023/10/21 03:28:30;;;;;;;0.70;0.70;;;18.50;78.40;;;;;;5013048;28;20215;-71
2023/10/21 03:30:58;;;;;;;0.50;0.50;;;18.50;78.40;;;;;;5020808;28;20188;-71
2023/10/21 03:33:25;;;;;;;0.60;0.60;;;18.50;78.30;;;;;;5037765;28;20203;-70
2023/10/21 03:35:52;;;;;;;0.85;0.50;;;18.50;78.40;;;;;;5017495;28;20180;-71
2023/10/21 03:38:19;;;;;;;0.30;0.30;;;18.50;78.40;;;;;;5036071;28;20194;-70
2023/10/21 03:40:54;;;;;;;0.47;0.40;;;18.50;78.40;;;;;;5000927;28;20196;-70
2023/10/21 03:43:19;;;;;;;0.35;0.35;;;18.50;78.40;;;;;;5011043;28;20221;-70
2023/10/21 03:45:45;;;;;;;0.77;0.60;;;18.50;78.40;;;;;;5019784;28;20183;-71
2023/10/21 03:48:11;;;;;;;0.57;0.40;;;18.50;78.40;;;;;;5018040;28;20219;-71
2023/10/21 03:50:37;;;;;;;0.82;0.60;;;18.50;78.40;;;;;;5010450;28;20186;-71
2023/10/21 03:53:03;;;;;;;0.63;0.52;;;18.50;78.40;;;;;;5020566;28;20194;-70
2023/10/21 03:55:29;;;;;;;0.50;0.50;;;18.50;78.40;;;;;;5037395;28;20210;-71
2023/10/21 03:57:54;;;;;;;0.75;0.75;;;18.50;78.40;;;;;;5019516;28;20184;-71
2023/10/21 04:00:21;;;;;;;0.60;0.60;;;18.50;78.40;;;;;;5018959;28;20197;-71
2023/10/21 04:02:47;;;;;;;0.82;0.50;;;18.50;78.40;;;;;;5011771;28;20235;-70
2023/10/21 04:05:13;;;;;;;0.45;0.45;;;18.50;78.40;;;;;;5032398;28;20210;-70
2023/10/21 04:07:39;;;;;;;1.42;0.50;;;18.50;78.40;;;;;;5003125;28;20274;-70
2023/10/21 04:10:05;;;;;;;0.63;0.60;;;18.50;78.40;;;;;;5038555;28;20241;-71
2023/10/21 04:12:31;;;;;;;0.40;0.40;;;18.50;78.40;;;;;;5000850;28;20183;-70
2023/10/21 04:14:56;;;;;;;0.60;0.60;;;18.50;78.40;;;;;;5037770;28;20727;-71
2023/10/21 04:17:22;;;;;;;0.40;0.40;;;18.50;78.40;;;;;;5018532;28;20191;-71
2023/10/21 04:19:48;;;;;;;0.85;0.68;;;18.50;78.40;;;;;;5017712;28;20198;-71
2023/10/21 04:22:13;;;;;;;0.70;0.70;;;18.50;78.40;;;;;;5004332;28;20209;-71
2023/10/21 04:24:39;;;;;;;0.60;0.60;;;18.50;78.40;;;;;;5025354;28;20217;-70
2023/10/21 04:27:05;;;;;;;0.60;0.60;;;18.50;78.50;;;;;;5036250;28;20230;-71
2023/10/21 04:29:34;;;;;;;1.15;0.60;;;18.50;78.40;;;;;;5001166;28;20201;-71
2023/10/21 04:31:59;;;;;;;0.60;0.60;;;18.50;78.40;;;;;;5038094;28;20183;-71
2023/10/21 04:34:25;;;;;;;0.50;0.50;;;18.50;78.50;;;;;;5017312;28;20288;-70
2023/10/21 04:36:51;;;;;;;0.50;0.50;;;18.40;78.30;;;;;;5002691;28;20191;-70
2023/10/21 04:39:16;;;;;;;0.65;0.65;;;18.50;78.40;;;;;;5022165;28;20178;-71
2023/10/21 04:41:43;;;;;;;0.55;0.47;;;18.50;78.40;;;;;;5021748;28;20213;-71
2023/10/21 04:44:13;;;;;;;0.70;0.70;;;18.50;78.50;;;;;;5002139;28;20208;-70
2023/10/21 04:46:39;;;;;;;0.60;0.60;;;18.50;78.60;;;;;;5034295;28;20265;-70
2023/10/21 04:49:05;;;;;;;0.50;0.50;;;18.50;78.60;;;;;;5034676;28;20210;-70
2023/10/21 04:51:31;;;;;;;0.88;0.80;;;18.50;78.40;;;;;;5035674;28;20215;-71
2023/10/21 04:53:57;;;;;;;0.60;0.60;;;18.50;78.50;;;;;;5036389;28;20261;-71
2023/10/21 04:56:26;;;;;;;0.70;0.70;;;18.50;78.40;;;;;;5026369;28;20183;-71
2023/10/21 04:58:52;;;;;;;0.73;0.73;;;18.50;78.40;;;;;;5016514;28;20188;-71
2023/10/21 05:01:17;;;;;;;0.57;0.57;;;18.50;78.50;;;;;;5016541;28;20184;-70
2023/10/21 05:03:43;;;;;;;0.80;0.73;;;18.50;78.40;;;;;;5000514;28;20289;-70
2023/10/21 05:06:10;;;;;;;0.70;0.70;;;18.50;79.30;;;;;;5016066;28;20191;-70
2023/10/21 05:08:36;;;;;;;1.20;0.60;;;18.50;78.40;;;;;;5022001;28;20293;-70
2023/10/21 05:11:02;;;;;;;1.10;0.60;;;18.50;78.40;;;;;;5001507;28;20223;-71
2023/10/21 05:13:28;;;;;;;1.27;0.70;;;18.50;78.50;;;;;;5017019;28;20195;-71
2023/10/21 05:15:54;;;;;;;0.63;0.63;;;18.50;78.40;;;;;;5017733;28;20224;-70
2023/10/21 05:18:20;;;;;;;0.70;0.70;;;18.50;78.40;;;;;;5017059;28;20191;-71
2023/10/21 05:20:46;;;;;;;0.60;0.60;;;18.50;78.40;;;;;;5034050;28;20210;-70
2023/10/21 05:23:11;;;;;;;1.10;0.95;;;18.50;78.40;;;;;;5025632;28;20672;-70
2023/10/21 05:25:37;;;;;;;0.85;0.85;;;18.50;78.50;;;;;;5012102;28;20207;-70
2023/10/21 05:28:04;;;;;;;0.63;0.63;;;18.50;78.40;;;;;;5016910;28;20225;-70
2023/10/21 05:30:29;;;;;;;0.50;0.50;;;18.50;78.40;;;;;;5003934;28;20181;-70
2023/10/21 05:32:55;;;;;;;0.60;0.60;;;18.50;78.50;;;;;;4996330;28;20184;-70
2023/10/21 05:35:21;;;;;;;0.60;0.60;;;18.50;78.50;;;;;;5017394;28;20252;-70
2023/10/21 05:37:47;;;;;;;1.20;0.60;;;18.50;78.50;;;;;;4997993;28;20199;-70
2023/10/21 05:40:13;;;;;;;0.70;0.70;;;18.50;78.50;;;;;;5010244;28;20257;-71
2023/10/21 05:42:39;;;;;;;0.70;0.70;;;18.50;78.50;;;;;;5022488;28;20564;-71
2023/10/21 05:45:08;;;;;;;1.10;0.60;;;18.50;78.50;;;;;;5015212;28;20214;-70
2023/10/21 05:47:37;;;;;;;0.57;0.57;;;18.50;78.50;;;;;;5016104;28;20212;-70
2023/10/21 05:50:03;;;;;;;1.27;0.70;;;18.50;78.50;;;;;;5030950;28;20204;-71
2023/10/21 05:52:29;;;;;;;0.75;0.75;;;18.50;78.50;;;;;;5017029;28;20183;-71
2023/10/21 05:54:55;;;;;;;0.68;0.68;;;18.50;78.50;;;;;;4998272;28;20205;-71
2023/10/21 05:57:21;;;;;;;1.00;0.75;;;18.50;78.50;;;;;;5016323;28;20186;-70
2023/10/21 05:59:47;;;;;;;0.60;0.60;;;18.40;78.40;;;;;;5016453;28;20214;-70
2023/10/21 06:02:13;;;;;;;0.77;0.77;;;18.50;78.50;;;;;;4999765;28;20202;-72
2023/10/21 06:04:39;;;;;;;0.70;0.70;;;18.50;78.50;;;;;;5016131;28;20211;-70
2023/10/21 06:07:06;;;;;;;1.20;0.73;;;18.50;78.50;;;;;;5016679;28;20217;-70
2023/10/21 06:09:32;;;;;;;0.52;0.50;;;18.50;78.50;;;;;;5013199;28;20184;-71
2023/10/21 06:11:59;;;;;;;0.70;0.70;;;18.50;78.50;;;;;;5012736;28;20286;-71
2023/10/21 06:14:25;;;;;;;0.70;0.70;;;18.50;78.50;;;;;;5012683;28;20258;-70
2023/10/21 06:16:51;;;;;;;0.85;0.85;;;18.50;78.50;;;;;;4999707;28;20180;-70
2023/10/21 06:19:17;;;;;;;0.70;0.70;;;18.50;78.50;;;;;;5024319;28;20269;-71
2023/10/21 06:21:43;;;;;;;0.77;0.77;;;18.50;78.50;;;;;;5033796;28;20544;-70
2023/10/21 06:24:09;;;;;;;0.70;0.70;;;18.50;78.50;;;;;;5018501;28;20219;-70
2023/10/21 06:26:34;;;;;;;0.80;0.80;;;18.50;78.50;;;;;;5033089;28;20195;-71
2023/10/21 06:29:00;;;;;;;0.60;0.60;;;18.50;78.50;;;;;;5020647;28;20215;-71
2023/10/21 06:31:26;;;;;;;0.75;0.68;;;18.50;78.50;;;;;;5015356;28;20198;-70
2023/10/21 06:33:53;;;;;;;1.02;0.80;;;18.50;78.50;;;;;;5033196;28;20196;-70
2023/10/21 06:36:19;;;;;;;0.90;0.85;;;18.50;78.50;;;;;;5023739;28;20236;-70
2023/10/21 06:38:49;;;;;;;0.70;0.70;;;18.50;78.50;;;;;;5024519;28;20669;-71
2023/10/21 06:41:16;;;;;;;0.75;0.75;;;18.50;78.50;;;;;;5004567;28;20257;-71
2023/10/21 06:43:42;;;;;;;0.80;0.80;;;18.50;78.60;;;;;;5042835;28;20218;-71
2023/10/21 06:46:07;;;;;;;0.80;0.80;;;18.50;78.50;;;;;;5011463;28;20194;-71
2023/10/21 06:48:33;;;;;;;0.98;0.65;;;18.50;78.60;;;;;;5014705;28;20215;-70
2023/10/21 06:50:59;;;;;;;0.70;0.60;;;18.50;78.60;;;;;;5026746;28;20277;-71
2023/10/21 06:53:29;;;;;;;0.80;0.80;;;18.40;78.50;;;;;;5039986;28;20199;-71
2023/10/21 06:55:54;;;;;;;0.70;0.70;;;18.50;78.50;;;;;;5023417;28;20665;-70
2023/10/21 06:58:20;;;;;;;0.65;0.63;;;18.50;78.50;;;;;;5028728;28;20190;-71
2023/10/21 07:00:46;;;;;;;0.80;0.80;;;18.40;78.50;;;;;;5029850;28;20264;-70
2023/10/21 07:03:13;;;;;;;0.70;0.57;;;18.50;78.50;;;;;;5021466;28;20203;-71
2023/10/21 07:05:40;;;;;;;1.08;0.80;;;18.50;78.50;;;;;;5011825;28;20212;-71
2023/10/21 07:08:06;;;;;;;0.52;0.52;;;18.50;78.50;;;;;;5032969;28;20222;-71
2023/10/21 07:10:32;;;;;;;0.80;0.80;;;18.50;78.50;;;;;;5036193;28;20190;-70
2023/10/21 07:12:59;;;;;;;0.82;0.82;;;18.50;78.50;;;;;;4999022;28;20180;-71
2023/10/21 07:15:33;;;;;;;0.93;0.90;;;18.50;78.50;;;;;;5010002;28;20198;-71
2023/10/21 07:17:59;;;;;;;0.50;0.50;;;18.50;78.60;;;;;;5002320;28;20198;-71
2023/10/21 07:20:26;;;;;;;0.60;0.60;;;18.50;78.50;;;;;;5043779;28;20188;-70
2023/10/21 07:22:52;;;;;;;0.77;0.77;;;18.50;78.50;;;;;;5001546;28;20188;-70
2023/10/21 07:25:18;;;;;;;0.65;0.65;;;18.50;78.60;;;;;;5006162;28;20302;-70
2023/10/21 07:27:46;;;;;;;0.82;0.75;;;18.50;78.50;;;;;;5008093;28;20352;-71
2023/10/21 07:30:13;;;;;;;0.57;0.57;;;18.50;78.50;;;;;;5038798;28;20183;-71
2023/10/21 07:32:38;;;;;;;0.70;0.70;;;18.50;78.50;;;;;;5035610;28;20183;-70
2023/10/21 07:35:05;;;;;;;0.95;0.80;;;18.50;78.60;;;;;;5025675;28;20217;-71
2023/10/21 07:37:31;;;;;;;0.80;0.70;;;18.50;78.60;;;;;;5021442;28;20186;-71
2023/10/21 07:39:58;;;;;;;0.82;0.80;;;18.50;78.60;;;;;;5022453;28;20282;-70
2023/10/21 07:42:25;;;;;;;0.60;0.60;;;18.50;78.50;;;;;;5001569;28;20262;-71
2023/10/21 07:44:51;;;;;;;0.88;0.88;;;18.50;78.60;;;;;;5001837;28;20219;-70
2023/10/21 07:47:17;;;;;;;0.70;0.70;;;18.50;78.50;;;;;;5025068;28;20210;-70
2023/10/21 07:49:43;;;;;;;0.73;0.73;;;18.50;78.50;;;;;;5001144;28;20224;-70
2023/10/21 07:52:09;;;;;;;0.75;0.75;;;18.50;78.50;;;;;;5015603;28;20192;-71
2023/10/21 07:54:39;;;;;;;0.73;0.70;;;18.50;78.50;;;;;;5042117;28;20298;-70
2023/10/21 07:57:05;;;;;;;0.88;0.80;;;18.60;78.60;;;;;;5025107;28;20251;-71
2023/10/21 07:59:31;;;;;;;0.70;0.70;;;18.60;78.50;;;;;;5028759;28;20195;-71
2023/10/21 08:01:57;;;;;;;0.70;0.70;;;18.60;78.50;;;;;;5031047;28;20186;-71
2023/10/21 08:04:23;;;;;;;1.67;0.90;;;18.60;78.50;;;;;;5008645;28;20245;-70
2023/10/21 08:06:50;;;;;;;0.70;0.70;;;18.60;78.50;;;;;;5042266;28;20191;-70
2023/10/21 08:09:17;;;;;;;1.15;0.82;;;18.60;78.50;;;;;;5016029;28;20272;-69
2023/10/21 08:11:44;;;;;;;0.60;0.60;;;18.60;78.50;;;;;;5013037;28;20201;-70
2023/10/21 08:14:11;;;;;;;0.75;0.70;;;18.60;78.50;;;;;;5033169;28;20206;-70
2023/10/21 08:16:37;;;;;;;0.85;0.85;;;18.60;78.50;;;;;;5031082;28;20193;-70
2023/10/21 08:19:05;;;;;;;0.60;0.60;;;18.60;78.50;;;;;;5017290;28;20199;-70
2023/10/21 08:21:33;;;;;;;0.60;0.60;;;18.60;78.50;;;;;;5025914;28;20199;-70
2023/10/21 08:24:03;;;;;;;0.85;0.80;;;18.70;78.60;;;;;;5018171;28;20714;-70
2023/10/21 08:26:31;;;;;;;1.15;0.70;;;18.70;78.60;;;;;;5018246;28;20207;-70
2023/10/21 08:29:02;;;;;;;0.88;0.88;;;18.70;78.60;;;;;;5005270;28;20308;-70
2023/10/21 08:31:28;;;;;;;1.60;0.70;;;18.70;78.70;;;;;;5009129;28;20245;-70
2023/10/21 08:33:54;;;;;;;0.70;0.70;;;18.70;78.60;;;;;;5020070;28;20204;-69
2023/10/21 08:36:21;;;;;;;0.98;0.70;;;18.60;78.50;;;;;;5007086;28;20230;-70
2023/10/21 08:38:48;;;;;;;0.93;0.93;;;18.60;78.50;;;;;;5017347;28;20191;-70
2023/10/21 08:41:14;;;;;;;0.70;0.70;;;18.60;78.50;;;;;;5007373;28;20190;-69
2023/10/21 08:43:49;;;;;;;0.85;0.80;;;18.60;78.60;;;;;;5020735;28;20235;-69
2023/10/21 08:46:17;;;;;;;0.50;0.50;;;18.70;78.70;;;;;;5023139;28;20189;-70
2023/10/21 08:48:47;;;;;;;1.25;0.70;;;18.60;78.60;;;;;;5013905;28;20207;-70
2023/10/21 08:51:20;;;;;;;0.80;0.80;;;18.60;78.60;;;;;;5032809;28;20671;-70
2023/10/21 08:53:47;;;;;;;0.77;0.77;;;18.60;78.60;;;;;;5034014;28;20199;-71
2023/10/21 08:56:14;;;;;;;0.82;0.70;;;18.70;78.70;;;;;;5040994;28;20187;-70
2023/10/21 08:58:41;;;;;;;0.75;0.70;;;18.60;78.60;;;;;;5026164;28;20186;-70
2023/10/21 09:01:07;;;;;;;0.73;0.70;;;18.60;78.60;;;;;;5019387;28;20198;-70
2023/10/21 09:03:34;;;;;;;0.90;0.70;;;18.70;78.70;;;;;;5022843;28;20278;-70
2023/10/21 09:06:13;;;;;;;0.85;0.80;;;18.70;78.70;;;;;;5013192;28;20213;-70
2023/10/21 09:08:41;;;;;;;0.98;0.70;;;18.70;78.70;;;;;;5006585;28;20218;-70
2023/10/21 09:11:11;;;;;;;1.30;0.60;;;18.60;78.60;;;;;;5000569;28;20274;-71
2023/10/21 09:13:40;;;;;;;0.70;0.70;;;18.70;78.70;;;;;;5022681;28;20290;-70
2023/10/21 09:16:21;;;;;;;0.75;0.65;;;18.60;78.70;;;;;;5022532;28;20194;-70
2023/10/21 09:19:03;;;;;;;2.15;0.60;;;18.70;78.70;;;;;;5038008;28;20187;-70
2023/10/21 09:21:34;;;;;;;2.00;0.57;;;18.60;78.60;;;;;;5020250;28;20198;-70
2023/10/21 09:24:32;;;;;;;0.50;0.50;;;18.60;78.60;;;;;;5039582;28;20221;-70
2023/10/21 09:26:57;;;;;;;2.65;0.88;;;18.70;78.70;;;;;;4985427;28;20217;-70
2023/10/21 09:29:24;;;;;;;0.77;0.77;;;18.70;78.70;;;;;;5006172;28;20191;-70
2023/10/21 09:31:54;;;;;;;0.50;0.50;;;18.60;78.60;;;;;;5009881;28;20692;-70
2023/10/21 09:34:25;;;;;;;0.80;0.80;;;18.70;78.70;;;;;;5015877;28;20204;-69
2023/10/21 09:36:59;;;;;;;0.68;0.60;;;18.70;78.80;;;;;;5009598;28;20171;-69
2023/10/21 09:39:29;;;;;;;0.65;0.50;;;18.70;78.80;;;;;;5016676;28;20194;-71
2023/10/21 09:41:54;;;;;;;1.08;0.98;;;18.70;78.70;;;;;;5000333;28;20551;-69
2023/10/21 09:44:21;;;;;;;0.82;0.52;;;18.70;78.80;;;;;;5018841;28;20216;-70
2023/10/21 09:46:49;;;;;;;1.05;0.77;;;18.70;78.70;;;;;;5002225;28;20215;-70
2023/10/21 09:49:16;;;;;;;0.68;0.60;;;18.70;78.70;;;;;;5020248;28;20246;-70
2023/10/21 09:52:11;;;;;;;0.70;0.70;;;18.70;78.80;;;;;;5021553;28;20187;-70
2023/10/21 09:54:44;;;;;;;0.80;0.77;;;18.70;78.70;;;;;;5026418;28;20280;-69
2023/10/21 09:57:12;;;;;;;2.20;0.70;;;18.70;78.80;;;;;;4999439;28;20188;-70
2023/10/21 09:59:39;;;;;;;1.52;0.50;;;18.70;78.80;;;;;;5007403;28;20198;-70
2023/10/21 10:02:07;;;;;;;0.43;0.43;;;18.70;78.70;;;;;;5036490;28;20199;-70
2023/10/21 10:04:38;;;;;;;0.98;0.98;;;18.70;78.80;;;;;;5022679;28;20253;-70
2023/10/21 10:07:07;;;;;;;1.33;0.60;;;18.70;78.80;;;;;;5024728;28;20193;-70
2023/10/21 10:09:39;;;;;;;0.50;0.50;;;18.70;78.80;;;;;;5015733;28;20572;-70
2023/10/21 10:12:32;;;;;;;1.17;0.63;;;18.70;78.80;;;;;;5014050;28;20188;-70
2023/10/21 10:14:58;;;;;;;0.80;0.70;;;18.70;78.70;;;;;;5020509;28;20206;-70
2023/10/21 10:17:49;;;;;;;1.40;0.70;;;18.70;78.70;;;;;;5024074;28;20198;-70
2023/10/21 10:20:24;;;;;;;0.50;0.50;;;18.80;78.80;;;;;;5021004;28;20224;-70
2023/10/21 10:23:08;;;;;;;0.60;0.60;;;18.70;78.70;;;;;;5036425;28;20179;-70
2023/10/21 10:25:38;;;;;;;0.68;0.68;;;18.70;78.70;;;;;;5031198;28;20257;-70
2023/10/21 10:28:17;;;;;;;0.60;0.60;;;18.70;78.80;;;;;;5019568;28;20222;-71
2023/10/21 10:30:45;;;;;;;1.00;0.70;;;18.80;78.90;;;;;;5027747;28;20194;-70
2023/10/21 10:33:15;;;;;;;0.77;0.68;;;18.70;78.70;;;;;;5024207;28;20254;-70
2023/10/21 10:35:50;;;;;;;0.65;0.65;;;18.70;78.60;;;;;;5022187;28;20228;-70
2023/10/21 10:38:24;;;;;;;1.98;0.80;;;18.80;78.80;;;;;;5038569;28;20199;-70
2023/10/21 10:41:00;;;;;;;0.63;0.60;;;18.80;78.80;;;;;;5037208;28;20209;-71
2023/10/21 10:43:28;;;;;;;1.00;0.75;;;18.80;78.80;;;;;;5019482;28;20210;-70
2023/10/21 10:45:54;;;;;;;1.52;0.80;;;18.80;78.70;;;;;;5020157;28;20234;-70
2023/10/21 10:48:21;;;;;;;1.45;0.52;;;18.70;78.70;;;;;;5018451;28;20299;-71
2023/10/21 10:50:47;;;;;;;0.60;0.60;;;18.80;78.80;;;;;;5044239;28;20191;-70
2023/10/21 10:53:17;;;;;;;0.60;0.57;;;18.80;78.80;;;;;;5002940;28;20659;-71
2023/10/21 10:55:47;;;;;;;0.98;0.60;;;18.80;78.80;;;;;;5031279;28;20201;-70
2023/10/21 10:58:15;;;;;;;0.52;0.40;;;18.80;78.90;;;;;;5017037;28;20192;-70
2023/10/21 11:00:42;;;;;;;0.82;0.70;;;18.80;78.70;;;;;;5005926;28;20610;-70
2023/10/21 11:03:09;;;;;;;0.77;0.60;;;18.80;78.80;;;;;;5018624;28;20667;-70
2023/10/21 11:05:37;;;;;;;0.57;0.50;;;18.80;78.70;;;;;;5027091;28;20226;-70
2023/10/21 11:08:07;;;;;;;1.35;0.73;;;18.80;78.80;;;;;;5027868;28;20218;-70
2023/10/21 11:10:33;;;;;;;0.85;0.57;;;18.80;78.80;;;;;;4999945;28;20265;-70
2023/10/21 11:12:59;;;;;;;0.70;0.70;;;18.80;78.80;;;;;;5023223;28;20190;-70
2023/10/21 11:15:25;;;;;;;0.70;0.70;;;18.80;78.80;;;;;;5027827;28;20195;-70
2023/10/21 11:17:53;;;;;;;0.80;0.63;;;18.80;78.80;;;;;;5025801;28;20188;-71
2023/10/21 11:20:19;;;;;;;0.68;0.60;;;18.70;78.70;;;;;;5037462;28;20191;-70
2023/10/21 11:22:45;;;;;;;0.70;0.60;;;18.70;78.70;;;;;;5040695;28;20202;-70
2023/10/21 11:25:11;;;;;;;0.70;0.70;;;18.80;78.90;;;;;;5026688;28;20234;-71
2023/10/21 11:27:39;;;;;;;0.95;0.85;;;18.80;78.90;;;;;;5018059;28;20222;-70
2023/10/21 11:30:10;;;;;;;0.85;0.70;;;18.80;78.90;;;;;;5006493;28;20198;-70
2023/10/21 11:32:40;;;;;;;0.60;0.60;;;18.70;78.80;;;;;;5022568;28;20199;-70
2023/10/21 11:35:09;;;;;;;1.67;0.60;;;18.70;78.80;;;;;;5003504;28;20331;-70
2023/10/21 11:37:38;;;;;;;0.90;0.75;;;18.80;78.90;;;;;;5007399;28;20194;-70
2023/10/21 11:40:05;;;;;;;1.70;0.50;;;18.80;78.90;;;;;;5009565;28;20194;-70
2023/10/21 11:42:32;;;;;;;0.70;0.70;;;18.80;78.90;;;;;;5025889;28;20191;-70
2023/10/21 11:45:02;;;;;;;1.08;0.77;;;18.80;78.90;;;;;;5039458;28;20210;-71
2023/10/21 11:47:30;;;;;;;0.80;0.65;;;18.80;78.90;;;;;;5022277;28;20213;-70
2023/10/21 11:49:58;;;;;;;0.70;0.70;;;18.80;78.80;;;;;;5018401;28;20192;-70
2023/10/21 11:52:27;;;;;;;0.80;0.80;;;18.80;78.90;;;;;;5035414;28;20329;-71
2023/10/21 12:11:41;;;;;;;0.60;0.52;;;18.80;79.90;;;;;;5036645;28;20225;-71
2023/10/21 12:14:33;;;;;;;1.23;0.50;;;18.70;79.00;;;;;;5045778;28;20220;-71
2023/10/21 12:17:50;;;;;;;1.05;0.93;;;18.70;79.00;;;;;;5024306;28;20261;-70
2023/10/21 12:38:57;;;;;;;1.77;0.90;;;18.70;79.00;;;;;;5037147;28;20274;-70
2023/10/21 12:41:26;;;;;;;1.73;1.08;;;18.70;79.00;;;;;;5041551;28;20194;-70
2023/10/21 12:43:55;;;;;;;2.65;1.35;;;18.70;79.00;;;;;;5003595;28;20243;-70
2023/10/21 12:46:25;;;;;;;1.73;1.00;;;18.70;79.00;;;;;;5016332;28;20198;-70
2023/10/21 12:48:51;;;;;;;1.35;1.10;;;18.80;79.10;;;;;;5025135;28;20225;-69
2023/10/21 12:51:20;;;;;;;1.30;1.20;;;18.70;79.00;;;;;;5042869;28;20230;-71
2023/10/21 12:53:46;;;;;;;1.33;1.10;;;18.70;79.00;;;;;;5020828;28;20218;-71
2023/10/21 12:56:13;;;;;;;1.60;1.40;;;18.80;79.00;;;;;;5021420;28;20178;-70
2023/10/21 12:58:42;;;;;;;1.85;1.20;;;18.80;79.00;;;;;;5016669;28;20218;-71
2023/10/21 13:01:12;;;;;;;2.17;1.25;;;18.80;79.10;;;;;;5007080;28;20271;-71
2023/10/21 13:03:40;;;;;;;1.25;1.13;;;18.80;79.00;;;;;;5034074;28;20298;-70
2023/10/21 13:06:06;;;;;;;1.88;1.10;;;18.70;79.00;;;;;;5033486;28;20637;-71
2023/10/21 13:08:33;;;;;;;1.58;0.98;;;18.80;79.10;;;;;;5000566;28;20211;-70
2023/10/21 13:11:00;;;;;;;1.88;1.40;;;18.80;79.10;;;;;;5019392;28;20198;-70
2023/10/21 13:13:29;;;;;;;1.70;1.30;;;18.80;79.10;;;;;;5002935;28;20218;-70
2023/10/21 13:15:55;;;;;;;2.58;1.45;;;18.70;79.00;;;;;;5016247;28;20249;-71
2023/10/21 13:18:22;;;;;;;1.20;1.10;;;18.80;79.20;;;;;;5002482;28;20203;-71
2023/10/21 13:20:49;;;;;;;3.25;1.42;;;18.80;79.30;;;;;;5016365;28;20184;-70
2023/10/21 13:23:16;;;;;;;2.47;1.15;;;18.80;79.30;;;;;;5022044;28;20194;-70
2023/10/21 13:25:42;;;;;;;1.30;1.20;;;18.70;79.10;;;;;;5035375;28;20192;-70
2023/10/21 13:28:08;;;;;;;1.20;0.93;;;18.70;79.10;;;;;;5042537;28;20206;-70